sensor_id;sensor_type;location;lat;lon;timestamp;pressure;altitude;pressure_sealevel;temperature;humidity
11172;BME280;5642;50.830;12.082;2022-07-24T00:00:44;99875.38;;;19.89;37.71
11172;BME280;5642;50.830;12.082;2022-07-24T00:03:10;99874.69;;;19.85;37.79
11172;BME280;5642;50.830;12.082;2022-07-24T00:05:40;99866.16;;;19.80;37.65
11172;BME280;5642;50.830;12.082;2022-07-24T00:08:06;99848.28;;;19.68;37.71
11172;BME280;5642;50.830;12.082;2022-07-24T00:10:35;99863.66;;;19.77;37.91
11172;BME280;5642;50.830;12.082;2022-07-24T00:13:01;99868.91;;;19.79;37.74
11172;BME280;5642;50.830;12.082;2022-07-24T00:15:27;99857.97;;;19.69;37.85
11172;BME280;5642;50.830;12.082;2022-07-24T00:17:53;99852.47;;;19.58;38.04
11172;BME280;5642;50.830;12.082;2022-07-24T00:20:19;99876.94;;;19.63;37.97
11172;BME280;5642;50.830;12.082;2022-07-24T00:22:45;99872.88;;;19.58;38.03
11172;BME280;5642;50.830;12.082;2022-07-24T00:25:12;99862.72;;;19.50;38.09
11172;BME280;5642;50.830;12.082;2022-07-24T00:27:39;99867.16;;;19.49;38.18
11172;BME280;5642;50.830;12.082;2022-07-24T00:30:07;99870.59;;;19.51;37.98
11172;BME280;5642;50.830;12.082;2022-07-24T00:32:34;99871.53;;;19.50;38.28
11172;BME280;5642;50.830;12.082;2022-07-24T01:36:36;99917.28;;;18.49;38.88
11172;BME280;5642;50.830;12.082;2022-07-24T01:39:04;99911.97;;;18.49;39.05
11172;BME280;5642;50.830;12.082;2022-07-24T01:41:31;99901.72;;;18.43;39.27
11172;BME280;5642;50.830;12.082;2022-07-24T01:43:59;99907.00;;;18.43;39.18
11172;BME280;5642;50.830;12.082;2022-07-24T01:46:26;99910.53;;;18.43;39.30
11172;BME280;5642;50.830;12.082;2022-07-24T01:48:53;99913.25;;;18.42;39.29
11172;BME280;5642;50.830;12.082;2022-07-24T01:51:21;99922.94;;;18.43;39.31
11172;BME280;5642;50.830;12.082;2022-07-24T01:53:48;99914.19;;;18.40;39.49
11172;BME280;5642;50.830;12.082;2022-07-24T01:56:16;99913.25;;;18.42;39.27
11172;BME280;5642;50.830;12.082;2022-07-24T01:58:42;99914.97;;;18.43;39.20
11172;BME280;5642;50.830;12.082;2022-07-24T02:01:09;99918.41;;;18.45;39.24
11172;BME280;5642;50.830;12.082;2022-07-24T02:03:37;99888.53;;;18.25;39.23
11172;BME280;5642;50.830;12.082;2022-07-24T02:06:04;99889.28;;;18.27;39.21
11172;BME280;5642;50.830;12.082;2022-07-24T02:08:32;99917.63;;;18.43;39.32
11172;BME280;5642;50.830;12.082;2022-07-24T02:10:59;99912.50;;;18.39;39.34
11172;BME280;5642;50.830;12.082;2022-07-24T02:13:26;99914.44;;;18.36;39.37
11172;BME280;5642;50.830;12.082;2022-07-24T02:15:53;99907.00;;;18.27;39.44
11172;BME280;5642;50.830;12.082;2022-07-24T02:18:20;99913.16;;;18.27;39.57
11172;BME280;5642;50.830;12.082;2022-07-24T02:20:47;99912.41;;;18.25;39.53
11172;BME280;5642;50.830;12.082;2022-07-24T02:23:14;99902.81;;;18.23;39.63
11172;BME280;5642;50.830;12.082;2022-07-24T02:25:45;99901.38;;;18.17;39.49
11172;BME280;5642;50.830;12.082;2022-07-24T02:28:13;99914.44;;;18.20;39.48
11172;BME280;5642;50.830;12.082;2022-07-24T02:30:40;99906.66;;;18.17;39.58
11172;BME280;5642;50.830;12.082;2022-07-24T02:33:08;99889.78;;;18.03;39.61
11172;BME280;5642;50.830;12.082;2022-07-24T02:35:36;99895.03;;;18.04;39.64
11172;BME280;5642;50.830;12.082;2022-07-24T02:38:03;99909.72;;;18.10;39.77
11172;BME280;5642;50.830;12.082;2022-07-24T02:40:30;99916.03;;;18.07;39.66
11172;BME280;5642;50.830;12.082;2022-07-24T02:42:56;99916.91;;;18.08;39.66
11172;BME280;5642;50.830;12.082;2022-07-24T02:45:23;99904.59;;;18.07;39.63
11172;BME280;5642;50.830;12.082;2022-07-24T02:47:51;99908.94;;;18.08;39.72
11172;BME280;5642;50.830;12.082;2022-07-24T02:50:18;99911.69;;;18.06;39.67
11172;BME280;5642;50.830;12.082;2022-07-24T02:52:45;99918.03;;;18.04;39.74
11172;BME280;5642;50.830;12.082;2022-07-24T02:55:11;99916.31;;;18.03;39.64
11172;BME280;5642;50.830;12.082;2022-07-24T02:57:37;99920.69;;;18.04;39.58
11172;BME280;5642;50.830;12.082;2022-07-24T03:00:06;99918.97;;;18.03;39.78
11172;BME280;5642;50.830;12.082;2022-07-24T03:02:33;99924.47;;;17.98;39.80
11172;BME280;5642;50.830;12.082;2022-07-24T03:04:59;99921.16;;;17.94;39.91
11172;BME280;5642;50.830;12.082;2022-07-24T03:07:27;99921.22;;;17.93;39.99
11172;BME280;5642;50.830;12.082;2022-07-24T03:09:53;99905.75;;;17.85;39.99
11172;BME280;5642;50.830;12.082;2022-07-24T03:12:19;99923.09;;;17.91;39.84
11172;BME280;5642;50.830;12.082;2022-07-24T03:14:45;99924.22;;;17.87;40.05
11172;BME280;5642;50.830;12.082;2022-07-24T03:17:11;99927.72;;;17.87;39.96
11172;BME280;5642;50.830;12.082;2022-07-24T03:19:37;99929.59;;;17.85;40.17
11172;BME280;5642;50.830;12.082;2022-07-24T03:22:03;99927.00;;;17.84;40.10
11172;BME280;5642;50.830;12.082;2022-07-24T03:24:29;99924.53;;;17.81;40.21
11172;BME280;5642;50.830;12.082;2022-07-24T03:26:55;99928.28;;;17.77;40.19
11172;BME280;5642;50.830;12.082;2022-07-24T03:29:22;99913.50;;;17.73;40.21
11172;BME280;5642;50.830;12.082;2022-07-24T03:31:48;99922.31;;;17.73;40.38
11172;BME280;5642;50.830;12.082;2022-07-24T03:34:14;99917.94;;;17.72;40.48
11172;BME280;5642;50.830;12.082;2022-07-24T06:37:23;99883.66;;;37.05;37.00
11172;BME280;5642;50.830;12.082;2022-07-24T06:39:49;99871.50;;;37.73;35.58
11172;BME280;5642;50.830;12.082;2022-07-24T06:42:15;99877.03;;;38.37;34.97
11172;BME280;5642;50.830;12.082;2022-07-24T06:44:41;99873.38;;;39.01;34.37
11172;BME280;5642;50.830;12.082;2022-07-24T06:47:07;99873.31;;;39.64;33.54
11172;BME280;5642;50.830;12.082;2022-07-24T06:49:33;99868.53;;;40.21;33.35
11172;BME280;5642;50.830;12.082;2022-07-24T06:51:59;99861.75;;;40.72;32.58
11172;BME280;5642;50.830;12.082;2022-07-24T06:54:25;99859.91;;;41.25;31.85
11172;BME280;5642;50.830;12.082;2022-07-24T06:56:51;99860.34;;;41.64;31.71
11172;BME280;5642;50.830;12.082;2022-07-24T06:59:17;99864.72;;;42.00;31.21
11172;BME280;5642;50.830;12.082;2022-07-24T07:01:43;99860.38;;;42.27;30.85
11172;BME280;5642;50.830;12.082;2022-07-24T07:04:10;99855.09;;;42.37;30.68
11172;BME280;5642;50.830;12.082;2022-07-24T07:06:36;99842.94;;;42.62;30.37
11172;BME280;5642;50.830;12.082;2022-07-24T07:09:02;99850.69;;;43.10;30.09
11172;BME280;5642;50.830;12.082;2022-07-24T07:11:28;99858.13;;;43.54;29.64
11172;BME280;5642;50.830;12.082;2022-07-24T07:13:55;99855.78;;;44.01;29.29
11172;BME280;5642;50.830;12.082;2022-07-24T07:16:21;99844.25;;;44.48;28.49
11172;BME280;5642;50.830;12.082;2022-07-24T07:18:47;99847.22;;;44.95;28.43
11172;BME280;5642;50.830;12.082;2022-07-24T07:21:13;99847.00;;;45.34;27.80
11172;BME280;5642;50.830;12.082;2022-07-24T07:23:41;99833.19;;;45.71;27.55
11172;BME280;5642;50.830;12.082;2022-07-24T07:26:07;99832.84;;;46.09;27.26
11172;BME280;5642;50.830;12.082;2022-07-24T07:28:33;99839.38;;;46.55;26.79
11172;BME280;5642;50.830;12.082;2022-07-24T07:30:59;99842.53;;;46.94;26.34
11172;BME280;5642;50.830;12.082;2022-07-24T07:33:25;99844.00;;;47.32;26.15
11172;BME280;5642;50.830;12.082;2022-07-24T07:35:52;99839.78;;;47.60;25.53
11172;BME280;5642;50.830;12.082;2022-07-24T07:38:19;99839.19;;;47.88;25.19
11172;BME280;5642;50.830;12.082;2022-07-24T07:40:45;99840.22;;;48.08;25.00
11172;BME280;5642;50.830;12.082;2022-07-24T07:43:11;99833.44;;;48.34;24.32
11172;BME280;5642;50.830;12.082;2022-07-24T07:45:37;99838.63;;;48.56;23.88
11172;BME280;5642;50.830;12.082;2022-07-24T07:48:04;99829.31;;;48.81;24.21
11172;BME280;5642;50.830;12.082;2022-07-24T07:50:30;99836.88;;;49.09;23.73
11172;BME280;5642;50.830;12.082;2022-07-24T07:52:56;99831.56;;;49.41;23.46
11172;BME280;5642;50.830;12.082;2022-07-24T07:55:22;99831.84;;;49.69;23.10
11172;BME280;5642;50.830;12.082;2022-07-24T07:57:48;99832.75;;;49.64;22.92
11172;BME280;5642;50.830;12.082;2022-07-24T08:00:16;99833.41;;;49.56;22.99
11172;BME280;5642;50.830;12.082;2022-07-24T08:02:43;99843.06;;;49.64;22.35
11172;BME280;5642;50.830;12.082;2022-07-24T08:05:09;99834.22;;;49.86;22.55
11172;BME280;5642;50.830;12.082;2022-07-24T08:07:37;99819.56;;;49.99;21.95
11172;BME280;5642;50.830;12.082;2022-07-24T08:10:05;99831.69;;;50.32;22.12
11172;BME280;5642;50.830;12.082;2022-07-24T08:12:31;99821.03;;;50.58;21.65
11172;BME280;5642;50.830;12.082;2022-07-24T08:14:57;99821.31;;;50.94;21.18
11172;BME280;5642;50.830;12.082;2022-07-24T08:17:23;99820.09;;;51.32;20.54
11172;BME280;5642;50.830;12.082;2022-07-24T08:19:50;99824.84;;;51.78;20.25
11172;BME280;5642;50.830;12.082;2022-07-24T08:22:16;99820.25;;;52.09;20.01
11172;BME280;5642;50.830;12.082;2022-07-24T08:24:42;99817.13;;;52.38;19.60
11172;BME280;5642;50.830;12.082;2022-07-24T08:27:08;99812.19;;;52.71;19.92
11172;BME280;5642;50.830;12.082;2022-07-24T08:29:34;99803.69;;;52.98;19.17
11172;BME280;5642;50.830;12.082;2022-07-24T08:32:00;99796.97;;;53.22;18.78
11172;BME280;5642;50.830;12.082;2022-07-24T08:34:26;99800.06;;;53.51;18.52
11172;BME280;5642;50.830;12.082;2022-07-24T08:36:52;99801.31;;;53.76;18.52
11172;BME280;5642;50.830;12.082;2022-07-24T08:39:20;99798.75;;;53.97;18.63
11172;BME280;5642;50.830;12.082;2022-07-24T08:41:45;99796.59;;;53.93;18.56
11172;BME280;5642;50.830;12.082;2022-07-24T08:44:11;99797.09;;;53.87;17.83
11172;BME280;5642;50.830;12.082;2022-07-24T08:46:40;99795.66;;;54.07;17.82
11172;BME280;5642;50.830;12.082;2022-07-24T08:49:09;99796.03;;;54.22;18.10
11172;BME280;5642;50.830;12.082;2022-07-24T08:51:37;99789.28;;;54.41;17.56
11172;BME280;5642;50.830;12.082;2022-07-24T08:54:05;99796.38;;;54.73;17.10
11172;BME280;5642;50.830;12.082;2022-07-24T08:56:38;99790.91;;;55.02;16.50
11172;BME280;5642;50.830;12.082;2022-07-24T08:59:04;99784.28;;;55.24;16.98
11172;BME280;5642;50.830;12.082;2022-07-24T09:01:30;99785.56;;;55.35;16.28
11172;BME280;5642;50.830;12.082;2022-07-24T09:03:56;99793.16;;;55.34;15.76
11172;BME280;5642;50.830;12.082;2022-07-24T09:06:22;99776.66;;;55.33;16.39
11172;BME280;5642;50.830;12.082;2022-07-24T09:09:02;99778.97;;;55.22;16.30
11172;BME280;5642;50.830;12.082;2022-07-24T09:11:29;99768.31;;;55.07;16.29
11172;BME280;5642;50.830;12.082;2022-07-24T09:14:00;99768.66;;;55.05;16.08
11172;BME280;5642;50.830;12.082;2022-07-24T09:16:46;99766.31;;;55.08;16.19
11172;BME280;5642;50.830;12.082;2022-07-24T09:19:14;99768.28;;;55.16;15.60
11172;BME280;5642;50.830;12.082;2022-07-24T09:21:42;99770.19;;;55.32;15.23
11172;BME280;5642;50.830;12.082;2022-07-24T09:24:15;99773.28;;;55.57;15.35
11172;BME280;5642;50.830;12.082;2022-07-24T09:26:55;99777.72;;;55.87;14.79
11172;BME280;5642;50.830;12.082;2022-07-24T09:29:24;99778.28;;;56.10;14.76
11172;BME280;5642;50.830;12.082;2022-07-24T09:31:59;99767.25;;;56.26;13.93
11172;BME280;5642;50.830;12.082;2022-07-24T09:34:27;99767.94;;;56.43;14.38
11172;BME280;5642;50.830;12.082;2022-07-24T16:40:56;99353.19;;;32.36;17.15
11172;BME280;5642;50.830;12.082;2022-07-24T16:43:24;99352.16;;;32.37;17.25
11172;BME280;5642;50.830;12.082;2022-07-24T16:45:51;99353.00;;;32.38;17.36
11172;BME280;5642;50.830;12.082;2022-07-24T16:48:19;99346.09;;;32.35;17.08
11172;BME280;5642;50.830;12.082;2022-07-24T16:50:47;99343.56;;;32.34;17.13
11172;BME280;5642;50.830;12.082;2022-07-24T16:53:15;99342.09;;;32.31;17.33
11172;BME280;5642;50.830;12.082;2022-07-24T16:55:44;99346.84;;;32.29;17.21
11172;BME280;5642;50.830;12.082;2022-07-24T16:58:11;99348.91;;;32.27;17.24
11172;BME280;5642;50.830;12.082;2022-07-24T17:00:39;99340.88;;;32.19;17.34
11172;BME280;5642;50.830;12.082;2022-07-24T17:03:06;99347.13;;;32.19;17.51
11172;BME280;5642;50.830;12.082;2022-07-24T17:05:34;99347.97;;;32.20;17.34
11172;BME280;5642;50.830;12.082;2022-07-24T17:08:02;99350.91;;;32.18;17.46
11172;BME280;5642;50.830;12.082;2022-07-24T17:10:29;99353.97;;;32.15;17.21
11172;BME280;5642;50.830;12.082;2022-07-24T17:12:58;99347.41;;;32.10;17.55
11172;BME280;5642;50.830;12.082;2022-07-24T17:15:25;99337.50;;;32.02;17.47
11172;BME280;5642;50.830;12.082;2022-07-24T17:17:52;99340.56;;;31.99;17.63
11172;BME280;5642;50.830;12.082;2022-07-24T17:20:40;99345.16;;;31.99;17.59
11172;BME280;5642;50.830;12.082;2022-07-24T17:23:10;99341.03;;;31.88;17.56
11172;BME280;5642;50.830;12.082;2022-07-24T17:40:58;99348.09;;;31.60;18.03
11172;BME280;5642;50.830;12.082;2022-07-24T17:43:25;99357.53;;;31.64;17.51
11172;BME280;5642;50.830;12.082;2022-07-24T17:45:53;99349.59;;;31.62;17.69
11172;BME280;5642;50.830;12.082;2022-07-24T17:48:20;99355.22;;;31.61;17.76
11172;BME280;5642;50.830;12.082;2022-07-24T17:50:49;99358.06;;;31.59;17.94
11172;BME280;5642;50.830;12.082;2022-07-24T17:53:16;99345.91;;;31.55;17.93
11172;BME280;5642;50.830;12.082;2022-07-24T17:55:43;99345.81;;;31.48;18.00
11172;BME280;5642;50.830;12.082;2022-07-24T17:58:10;99343.94;;;31.49;18.07
11172;BME280;5642;50.830;12.082;2022-07-24T18:00:38;99347.88;;;31.46;17.77
11172;BME280;5642;50.830;12.082;2022-07-24T18:03:05;99354.31;;;31.45;18.16
11172;BME280;5642;50.830;12.082;2022-07-24T18:05:33;99356.53;;;31.42;18.04
11172;BME280;5642;50.830;12.082;2022-07-24T18:08:00;99344.56;;;31.36;17.87
11172;BME280;5642;50.830;12.082;2022-07-24T18:10:27;99344.28;;;31.31;18.10
11172;BME280;5642;50.830;12.082;2022-07-24T18:12:54;99353.41;;;31.30;18.18
11172;BME280;5642;50.830;12.082;2022-07-24T18:15:21;99340.34;;;31.19;18.17
11172;BME280;5642;50.830;12.082;2022-07-24T18:17:50;99348.25;;;31.21;18.13
11172;BME280;5642;50.830;12.082;2022-07-24T18:20:18;99344.41;;;31.15;18.50
11172;BME280;5642;50.830;12.082;2022-07-24T18:22:45;99315.47;;;30.93;18.26
11172;BME280;5642;50.830;12.082;2022-07-24T18:25:13;99313.78;;;30.92;18.27
11172;BME280;5642;50.830;12.082;2022-07-24T18:27:40;99330.50;;;30.95;18.48
11172;BME280;5642;50.830;12.082;2022-07-24T18:30:08;99337.47;;;30.90;18.36
11172;BME280;5642;50.830;12.082;2022-07-24T18:32:35;99335.19;;;30.79;18.32
11172;BME280;5642;50.830;12.082;2022-07-24T18:35:05;99336.56;;;30.74;18.50
11172;BME280;5642;50.830;12.082;2022-07-24T18:37:32;99340.34;;;30.65;18.51
11172;BME280;5642;50.830;12.082;2022-07-24T18:40:00;99334.13;;;30.57;18.80
11172;BME280;5642;50.830;12.082;2022-07-24T19:40:53;99370.13;;;27.79;19.68
11172;BME280;5642;50.830;12.082;2022-07-24T19:43:20;99371.09;;;27.70;20.05
11172;BME280;5642;50.830;12.082;2022-07-24T19:45:47;99370.03;;;27.62;20.26
11172;BME280;5642;50.830;12.082;2022-07-24T19:48:14;99379.75;;;27.55;20.23
11172;BME280;5642;50.830;12.082;2022-07-24T19:50:41;99359.75;;;27.40;20.37
11172;BME280;5642;50.830;12.082;2022-07-24T19:53:09;99375.34;;;27.37;20.26
11172;BME280;5642;50.830;12.082;2022-07-24T19:55:36;99371.91;;;27.26;20.67
11172;BME280;5642;50.830;12.082;2022-07-24T19:58:03;99371.84;;;27.18;20.62
11172;BME280;5642;50.830;12.082;2022-07-24T20:00:29;99353.00;;;27.01;21.04
11172;BME280;5642;50.830;12.082;2022-07-24T20:02:56;99368.16;;;27.02;20.92
11172;BME280;5642;50.830;12.082;2022-07-24T20:05:23;99368.63;;;26.97;21.11
11172;BME280;5642;50.830;12.082;2022-07-24T20:07:50;99374.28;;;26.94;21.13
11172;BME280;5642;50.830;12.082;2022-07-24T20:10:18;99351.44;;;26.80;21.28
11172;BME280;5642;50.830;12.082;2022-07-24T20:12:45;99348.66;;;26.72;21.48
11172;BME280;5642;50.830;12.082;2022-07-24T20:15:13;99366.72;;;26.80;21.29
11172;BME280;5642;50.830;12.082;2022-07-24T20:17:39;99359.34;;;26.64;21.68
11172;BME280;5642;50.830;12.082;2022-07-24T20:20:06;99361.19;;;26.64;21.39
11172;BME280;5642;50.830;12.082;2022-07-24T20:22:34;99365.41;;;26.66;21.76
11172;BME280;5642;50.830;12.082;2022-07-24T20:25:01;99337.28;;;26.43;21.92
11172;BME280;5642;50.830;12.082;2022-07-24T20:27:28;99353.69;;;26.40;21.93
11172;BME280;5642;50.830;12.082;2022-07-24T20:29:56;99362.03;;;26.37;21.83
11172;BME280;5642;50.830;12.082;2022-07-24T20:32:23;99369.09;;;26.38;21.78
11172;BME280;5642;50.830;12.082;2022-07-24T20:34:53;99375.94;;;26.32;21.86
11172;BME280;5642;50.830;12.082;2022-07-24T20:37:19;99363.66;;;26.20;22.05
11172;BME280;5642;50.830;12.082;2022-07-24T20:39:46;99371.00;;;26.18;22.10
11172;BME280;5642;50.830;12.082;2022-07-24T20:42:15;99379.91;;;26.19;22.38
11172;BME280;5642;50.830;12.082;2022-07-24T20:44:42;99386.03;;;26.11;22.18
11172;BME280;5642;50.830;12.082;2022-07-24T20:47:09;99380.53;;;26.03;22.07
11172;BME280;5642;50.830;12.082;2022-07-24T20:49:36;99383.94;;;25.95;22.50
11172;BME280;5642;50.830;12.082;2022-07-24T20:52:03;99394.28;;;25.90;22.50
11172;BME280;5642;50.830;12.082;2022-07-24T20:54:30;99393.88;;;25.85;22.25
11172;BME280;5642;50.830;12.082;2022-07-24T20:56:57;99381.06;;;25.69;22.50
11172;BME280;5642;50.830;12.082;2022-07-24T20:59:24;99385.19;;;25.64;22.81
11172;BME280;5642;50.830;12.082;2022-07-24T21:01:52;99385.44;;;25.51;22.58
11172;BME280;5642;50.830;12.082;2022-07-24T21:04:20;99394.50;;;25.41;22.94
11172;BME280;5642;50.830;12.082;2022-07-24T21:06:48;99390.13;;;25.20;22.99
11172;BME280;5642;50.830;12.082;2022-07-24T21:09:15;99384.63;;;25.03;23.36
11172;BME280;5642;50.830;12.082;2022-07-24T21:11:42;99403.69;;;25.00;23.36
11172;BME280;5642;50.830;12.082;2022-07-24T21:14:08;99407.56;;;24.86;23.36
11172;BME280;5642;50.830;12.082;2022-07-24T21:16:35;99380.75;;;24.67;23.51
11172;BME280;5642;50.830;12.082;2022-07-24T21:19:01;99406.53;;;24.68;23.28
11172;BME280;5642;50.830;12.082;2022-07-24T21:21:27;99399.31;;;24.58;23.69
11172;BME280;5642;50.830;12.082;2022-07-24T21:23:56;99392.13;;;24.49;23.74
11172;BME280;5642;50.830;12.082;2022-07-24T21:26:23;99391.97;;;24.41;23.54
11172;BME280;5642;50.830;12.082;2022-07-24T21:28:49;99396.88;;;24.36;23.45
11172;BME280;5642;50.830;12.082;2022-07-24T21:31:15;99394.47;;;24.33;23.93
11172;BME280;5642;50.830;12.082;2022-07-24T21:33:41;99389.91;;;24.24;23.66
11172;BME280;5642;50.830;12.082;2022-07-24T21:36:07;99376.94;;;24.19;23.77
11172;BME280;5642;50.830;12.082;2022-07-24T21:38:34;99392.22;;;24.29;23.69
11172;BME280;5642;50.830;12.082;2022-07-24T21:41:01;99387.97;;;24.26;24.06
11172;BME280;5642;50.830;12.082;2022-07-24T21:43:29;99377.91;;;24.18;24.17
11172;BME280;5642;50.830;12.082;2022-07-24T21:45:56;99384.00;;;24.21;23.92
11172;BME280;5642;50.830;12.082;2022-07-24T21:48:22;99379.28;;;24.13;23.93
11172;BME280;5642;50.830;12.082;2022-07-24T21:50:48;99381.53;;;24.17;24.08
11172;BME280;5642;50.830;12.082;2022-07-24T21:53:16;99384.63;;;24.13;24.37
11172;BME280;5642;50.830;12.082;2022-07-24T21:55:42;99370.19;;;23.95;24.26
11172;BME280;5642;50.830;12.082;2022-07-24T21:58:10;99385.84;;;23.99;24.54
11172;BME280;5642;50.830;12.082;2022-07-24T22:00:43;99385.41;;;23.94;24.47
11172;BME280;5642;50.830;12.082;2022-07-24T22:03:10;99381.69;;;23.86;24.43
11172;BME280;5642;50.830;12.082;2022-07-24T22:05:38;99372.31;;;23.70;24.55
11172;BME280;5642;50.830;12.082;2022-07-24T22:08:07;99389.94;;;23.73;24.88
11172;BME280;5642;50.830;12.082;2022-07-24T22:10:36;99385.38;;;23.64;24.98
11172;BME280;5642;50.830;12.082;2022-07-24T22:13:04;99380.69;;;23.56;24.74
11172;BME280;5642;50.830;12.082;2022-07-24T22:15:32;99384.97;;;23.48;24.99
11172;BME280;5642;50.830;12.082;2022-07-24T22:18:00;99380.25;;;23.40;25.16
11172;BME280;5642;50.830;12.082;2022-07-24T22:20:27;99376.41;;;23.33;25.14
11172;BME280;5642;50.830;12.082;2022-07-24T22:22:55;99368.06;;;23.26;25.31
11172;BME280;5642;50.830;12.082;2022-07-24T22:25:26;99378.75;;;23.26;25.38
11172;BME280;5642;50.830;12.082;2022-07-24T22:27:52;99374.31;;;23.16;25.25
11172;BME280;5642;50.830;12.082;2022-07-24T22:30:19;99370.91;;;23.14;25.03
11172;BME280;5642;50.830;12.082;2022-07-24T22:32:46;99371.03;;;23.12;25.18
11172;BME280;5642;50.830;12.082;2022-07-24T22:35:14;99368.50;;;23.11;25.34
11172;BME280;5642;50.830;12.082;2022-07-24T22:37:44;99371.28;;;23.09;25.21
11172;BME280;5642;50.830;12.082;2022-07-24T22:40:13;99371.56;;;23.06;25.29
11172;BME280;5642;50.830;12.082;2022-07-24T22:42:42;99375.59;;;23.00;25.43
11172;BME280;5642;50.830;12.082;2022-07-24T22:45:10;99327.84;;;22.75;25.39
11172;BME280;5642;50.830;12.082;2022-07-24T22:47:40;99352.94;;;22.84;25.60
11172;BME280;5642;50.830;12.082;2022-07-24T22:50:09;99363.97;;;22.90;25.76
11172;BME280;5642;50.830;12.082;2022-07-24T22:52:39;99360.38;;;22.80;26.00
11172;BME280;5642;50.830;12.082;2022-07-24T22:55:07;99360.00;;;22.74;25.79
11172;BME280;5642;50.830;12.082;2022-07-24T22:57:35;99361.72;;;22.63;25.81
11172;BME280;5642;50.830;12.082;2022-07-24T23:00:09;99353.72;;;22.52;25.91
11172;BME280;5642;50.830;12.082;2022-07-24T23:02:36;99354.97;;;22.48;26.14
11172;BME280;5642;50.830;12.082;2022-07-24T23:05:03;99337.28;;;22.36;26.08
11172;BME280;5642;50.830;12.082;2022-07-24T23:07:30;99308.06;;;22.12;26.02
11172;BME280;5642;50.830;12.082;2022-07-24T23:09:59;99312.22;;;22.16;26.07
11172;BME280;5642;50.830;12.082;2022-07-24T23:12:30;99336.94;;;22.30;26.10
11172;BME280;5642;50.830;12.082;2022-07-24T23:14:57;99329.03;;;22.17;26.26
11172;BME280;5642;50.830;12.082;2022-07-24T23:17:24;99332.31;;;22.20;26.24
11172;BME280;5642;50.830;12.082;2022-07-24T23:19:52;99342.38;;;22.17;26.27
11172;BME280;5642;50.830;12.082;2022-07-24T23:22:19;99341.41;;;22.18;26.38
11172;BME280;5642;50.830;12.082;2022-07-24T23:24:47;99339.13;;;22.13;26.22
11172;BME280;5642;50.830;12.082;2022-07-24T23:27:14;99334.88;;;22.11;26.45
11172;BME280;5642;50.830;12.082;2022-07-24T23:29:42;99298.84;;;21.83;26.73
11172;BME280;5642;50.830;12.082;2022-07-24T23:32:10;99335.25;;;22.06;26.53
11172;BME280;5642;50.830;12.082;2022-07-24T23:34:38;99330.41;;;22.00;26.58
11172;BME280;5642;50.830;12.082;2022-07-24T23:37:06;99331.50;;;21.98;26.46
11172;BME280;5642;50.830;12.082;2022-07-24T23:39:36;99345.69;;;21.98;26.56
